sensor_id;sensor_type;location;lat;lon;timestamp;P1;durP1;ratioP1;P2;durP2;ratioP2
64459;SDS011;50828;53.756;21.140;2022-09-09T00:01:51;5.90;;;2.10;;
64459;SDS011;50828;53.756;21.140;2022-09-09T00:07:05;5.10;;;1.90;;
64459;SDS011;50828;53.756;21.140;2022-09-09T00:12:21;3.60;;;1.80;;
64459;SDS011;50828;53.756;21.140;2022-09-09T00:17:38;4.60;;;2.10;;
64459;SDS011;50828;53.756;21.140;2022-09-09T00:22:54;3.90;;;1.60;;
64459;SDS011;50828;53.756;21.140;2022-09-09T00:28:06;3.30;;;1.80;;
64459;SDS011;50828;53.756;21.140;2022-09-09T00:33:23;3.50;;;2.00;;
64459;SDS011;50828;53.756;21.140;2022-09-09T00:38:33;6.90;;;2.00;;
64459;SDS011;50828;53.756;21.140;2022-09-09T00:43:43;3.00;;;1.70;;
64459;SDS011;50828;53.756;21.140;2022-09-09T00:49:03;4.30;;;2.10;;
64459;SDS011;50828;53.756;21.140;2022-09-09T00:59:57;3.20;;;1.90;;
64459;SDS011;50828;53.756;21.140;2022-09-09T01:05:24;2.50;;;1.80;;
64459;SDS011;50828;53.756;21.140;2022-09-09T01:10:41;3.60;;;1.90;;
64459;SDS011;50828;53.756;21.140;2022-09-09T01:15:56;3.30;;;1.90;;
64459;SDS011;50828;53.756;21.140;2022-09-09T01:21:16;3.60;;;1.70;;
64459;SDS011;50828;53.756;21.140;2022-09-09T01:26:34;5.80;;;2.30;;
64459;SDS011;50828;53.756;21.140;2022-09-09T01:31:55;4.30;;;1.90;;
64459;SDS011;50828;53.756;21.140;2022-09-09T01:37:06;4.60;;;2.20;;
64459;SDS011;50828;53.756;21.140;2022-09-09T01:42:16;7.20;;;2.10;;
64459;SDS011;50828;53.756;21.140;2022-09-09T01:47:24;5.30;;;2.20;;
64459;SDS011;50828;53.756;21.140;2022-09-09T01:53:01;2.70;;;1.70;;
64459;SDS011;50828;53.756;21.140;2022-09-09T01:58:14;3.50;;;1.70;;
64459;SDS011;50828;53.756;21.140;2022-09-09T02:03:33;4.80;;;2.40;;
64459;SDS011;50828;53.756;21.140;2022-09-09T02:08:49;5.50;;;2.40;;
64459;SDS011;50828;53.756;21.140;2022-09-09T02:14:01;5.60;;;1.70;;
64459;SDS011;50828;53.756;21.140;2022-09-09T02:19:14;8.00;;;2.10;;
64459;SDS011;50828;53.756;21.140;2022-09-09T02:24:53;3.90;;;2.00;;
64459;SDS011;50828;53.756;21.140;2022-09-09T02:30:06;7.20;;;2.20;;
64459;SDS011;50828;53.756;21.140;2022-09-09T02:35:21;5.20;;;2.20;;
64459;SDS011;50828;53.756;21.140;2022-09-09T02:40:30;4.10;;;2.20;;
64459;SDS011;50828;53.756;21.140;2022-09-09T02:45:40;3.70;;;2.20;;
64459;SDS011;50828;53.756;21.140;2022-09-09T02:50:56;4.40;;;2.20;;
64459;SDS011;50828;53.756;21.140;2022-09-09T02:56:11;5.00;;;2.30;;
64459;SDS011;50828;53.756;21.140;2022-09-09T03:01:23;4.20;;;1.90;;
64459;SDS011;50828;53.756;21.140;2022-09-09T03:06:31;4.20;;;1.90;;
64459;SDS011;50828;53.756;21.140;2022-09-09T03:11:50;4.70;;;2.00;;
64459;SDS011;50828;53.756;21.140;2022-09-09T03:16:58;5.60;;;1.90;;
64459;SDS011;50828;53.756;21.140;2022-09-09T03:22:10;4.80;;;1.80;;
64459;SDS011;50828;53.756;21.140;2022-09-09T03:27:18;4.70;;;2.00;;
64459;SDS011;50828;53.756;21.140;2022-09-09T03:32:26;4.70;;;1.90;;
64459;SDS011;50828;53.756;21.140;2022-09-09T03:37:35;3.40;;;1.90;;
64459;SDS011;50828;53.756;21.140;2022-09-09T03:42:45;3.90;;;2.30;;
64459;SDS011;50828;53.756;21.140;2022-09-09T03:47:53;4.90;;;1.70;;
64459;SDS011;50828;53.756;21.140;2022-09-09T03:53:00;4.20;;;2.00;;
64459;SDS011;50828;53.756;21.140;2022-09-09T03:58:10;4.80;;;1.90;;
64459;SDS011;50828;53.756;21.140;2022-09-09T04:03:18;6.00;;;1.80;;
64459;SDS011;50828;53.756;21.140;2022-09-09T04:08:31;4.80;;;1.90;;
64459;SDS011;50828;53.756;21.140;2022-09-09T04:13:40;6.00;;;2.10;;
64459;SDS011;50828;53.756;21.140;2022-09-09T04:18:48;5.80;;;2.40;;
64459;SDS011;50828;53.756;21.140;2022-09-09T04:23:57;6.90;;;2.20;;
64459;SDS011;50828;53.756;21.140;2022-09-09T04:29:04;5.80;;;2.40;;
64459;SDS011;50828;53.756;21.140;2022-09-09T04:34:12;4.40;;;2.60;;
64459;SDS011;50828;53.756;21.140;2022-09-09T04:39:20;4.80;;;2.40;;
64459;SDS011;50828;53.756;21.140;2022-09-09T04:44:27;5.30;;;3.10;;
64459;SDS011;50828;53.756;21.140;2022-09-09T04:49:35;9.40;;;3.10;;
64459;SDS011;50828;53.756;21.140;2022-09-09T04:54:43;6.90;;;3.40;;
64459;SDS011;50828;53.756;21.140;2022-09-09T04:59:51;7.40;;;3.60;;
64459;SDS011;50828;53.756;21.140;2022-09-09T05:04:59;8.90;;;4.40;;
64459;SDS011;50828;53.756;21.140;2022-09-09T05:10:07;8.70;;;4.40;;
64459;SDS011;50828;53.756;21.140;2022-09-09T05:15:15;9.70;;;4.60;;
64459;SDS011;50828;53.756;21.140;2022-09-09T05:20:23;14.90;;;5.30;;
64459;SDS011;50828;53.756;21.140;2022-09-09T05:25:30;10.60;;;5.30;;
64459;SDS011;50828;53.756;21.140;2022-09-09T05:30:38;11.90;;;5.80;;
64459;SDS011;50828;53.756;21.140;2022-09-09T05:35:46;14.20;;;5.80;;
64459;SDS011;50828;53.756;21.140;2022-09-09T05:40:59;13.90;;;6.10;;
64459;SDS011;50828;53.756;21.140;2022-09-09T05:46:08;14.80;;;7.00;;
64459;SDS011;50828;53.756;21.140;2022-09-09T05:51:18;14.00;;;6.50;;
64459;SDS011;50828;53.756;21.140;2022-09-09T05:56:28;14.10;;;6.50;;
64459;SDS011;50828;53.756;21.140;2022-09-09T06:01:36;15.40;;;6.40;;
64459;SDS011;50828;53.756;21.140;2022-09-09T06:06:50;15.00;;;7.10;;
64459;SDS011;50828;53.756;21.140;2022-09-09T06:11:58;14.30;;;7.40;;
64459;SDS011;50828;53.756;21.140;2022-09-09T06:17:07;14.90;;;7.20;;
64459;SDS011;50828;53.756;21.140;2022-09-09T06:22:15;19.20;;;7.30;;
64459;SDS011;50828;53.756;21.140;2022-09-09T06:27:22;15.20;;;7.50;;
64459;SDS011;50828;53.756;21.140;2022-09-09T06:32:29;14.30;;;7.60;;
64459;SDS011;50828;53.756;21.140;2022-09-09T06:37:38;18.60;;;8.20;;
64459;SDS011;50828;53.756;21.140;2022-09-09T06:42:49;17.70;;;7.90;;
64459;SDS011;50828;53.756;21.140;2022-09-09T06:48:10;15.60;;;7.70;;
64459;SDS011;50828;53.756;21.140;2022-09-09T06:53:18;19.10;;;7.90;;
64459;SDS011;50828;53.756;21.140;2022-09-09T06:58:25;15.90;;;8.30;;
64459;SDS011;50828;53.756;21.140;2022-09-09T07:03:34;17.90;;;8.60;;
64459;SDS011;50828;53.756;21.140;2022-09-09T07:08:42;17.80;;;8.10;;
64459;SDS011;50828;53.756;21.140;2022-09-09T07:14:00;14.90;;;7.80;;
64459;SDS011;50828;53.756;21.140;2022-09-09T07:19:11;12.50;;;7.60;;
64459;SDS011;50828;53.756;21.140;2022-09-09T07:24:19;17.30;;;7.60;;
64459;SDS011;50828;53.756;21.140;2022-09-09T07:29:27;13.10;;;7.90;;
64459;SDS011;50828;53.756;21.140;2022-09-09T07:34:35;15.60;;;8.10;;
64459;SDS011;50828;53.756;21.140;2022-09-09T07:39:42;14.10;;;7.50;;
64459;SDS011;50828;53.756;21.140;2022-09-09T07:44:50;17.20;;;7.80;;
64459;SDS011;50828;53.756;21.140;2022-09-09T07:49:59;15.00;;;7.50;;
64459;SDS011;50828;53.756;21.140;2022-09-09T07:55:08;18.80;;;7.30;;
64459;SDS011;50828;53.756;21.140;2022-09-09T08:00:15;14.20;;;7.50;;
64459;SDS011;50828;53.756;21.140;2022-09-09T08:05:26;15.90;;;7.80;;
64459;SDS011;50828;53.756;21.140;2022-09-09T08:10:34;13.00;;;6.70;;
64459;SDS011;50828;53.756;21.140;2022-09-09T08:15:42;13.70;;;6.90;;
64459;SDS011;50828;53.756;21.140;2022-09-09T08:20:51;11.90;;;6.50;;
64459;SDS011;50828;53.756;21.140;2022-09-09T08:26:04;14.70;;;7.10;;
64459;SDS011;50828;53.756;21.140;2022-09-09T08:31:15;13.00;;;7.00;;
64459;SDS011;50828;53.756;21.140;2022-09-09T08:36:30;15.10;;;6.60;;
64459;SDS011;50828;53.756;21.140;2022-09-09T08:41:46;15.40;;;7.40;;
64459;SDS011;50828;53.756;21.140;2022-09-09T08:52:38;12.00;;;6.10;;
64459;SDS011;50828;53.756;21.140;2022-09-09T08:57:54;13.70;;;6.80;;
64459;SDS011;50828;53.756;21.140;2022-09-09T09:08:20;13.10;;;6.10;;
64459;SDS011;50828;53.756;21.140;2022-09-09T09:13:40;11.80;;;6.20;;
64459;SDS011;50828;53.756;21.140;2022-09-09T09:18:53;13.40;;;7.10;;
64459;SDS011;50828;53.756;21.140;2022-09-09T09:24:02;12.80;;;7.10;;
64459;SDS011;50828;53.756;21.140;2022-09-09T09:29:25;14.70;;;6.90;;
64459;SDS011;50828;53.756;21.140;2022-09-09T09:34:33;17.10;;;6.80;;
64459;SDS011;50828;53.756;21.140;2022-09-09T09:39:41;12.50;;;6.90;;
64459;SDS011;50828;53.756;21.140;2022-09-09T09:45:16;14.00;;;6.70;;
64459;SDS011;50828;53.756;21.140;2022-09-09T09:50:33;12.00;;;6.60;;
64459;SDS011;50828;53.756;21.140;2022-09-09T09:55:53;11.80;;;6.70;;
64459;SDS011;50828;53.756;21.140;2022-09-09T10:06:41;12.60;;;7.60;;
64459;SDS011;50828;53.756;21.140;2022-09-09T10:11:57;12.60;;;6.90;;
64459;SDS011;50828;53.756;21.140;2022-09-09T10:17:18;14.60;;;6.50;;
64459;SDS011;50828;53.756;21.140;2022-09-09T10:22:33;12.60;;;7.00;;
64459;SDS011;50828;53.756;21.140;2022-09-09T10:27:44;12.20;;;6.90;;
64459;SDS011;50828;53.756;21.140;2022-09-09T10:33:09;11.40;;;5.70;;
64459;SDS011;50828;53.756;21.140;2022-09-09T10:38:23;12.30;;;6.20;;
64459;SDS011;50828;53.756;21.140;2022-09-09T10:43:42;9.90;;;6.00;;
64459;SDS011;50828;53.756;21.140;2022-09-09T10:49:05;9.30;;;5.70;;
64459;SDS011;50828;53.756;21.140;2022-09-09T10:54:28;12.30;;;6.90;;
64459;SDS011;50828;53.756;21.140;2022-09-09T10:59:45;11.30;;;6.10;;
64459;SDS011;50828;53.756;21.140;2022-09-09T11:05:03;9.60;;;5.60;;
64459;SDS011;50828;53.756;21.140;2022-09-09T11:10:18;9.90;;;6.00;;
64459;SDS011;50828;53.756;21.140;2022-09-09T11:15:31;10.50;;;6.00;;
64459;SDS011;50828;53.756;21.140;2022-09-09T11:20:42;9.50;;;6.40;;
64459;SDS011;50828;53.756;21.140;2022-09-09T11:25:52;10.50;;;6.60;;
64459;SDS011;50828;53.756;21.140;2022-09-09T11:31:07;8.40;;;6.30;;
64459;SDS011;50828;53.756;21.140;2022-09-09T11:41:40;8.00;;;5.80;;
64459;SDS011;50828;53.756;21.140;2022-09-09T11:46:48;10.80;;;6.50;;
64459;SDS011;50828;53.756;21.140;2022-09-09T11:51:58;12.20;;;6.80;;
64459;SDS011;50828;53.756;21.140;2022-09-09T11:57:21;11.00;;;6.40;;
64459;SDS011;50828;53.756;21.140;2022-09-09T12:02:36;9.30;;;5.80;;
64459;SDS011;50828;53.756;21.140;2022-09-09T12:07:56;9.90;;;6.20;;
64459;SDS011;50828;53.756;21.140;2022-09-09T12:13:09;9.00;;;6.20;;
64459;SDS011;50828;53.756;21.140;2022-09-09T12:18:24;10.30;;;5.80;;
64459;SDS011;50828;53.756;21.140;2022-09-09T12:23:41;8.90;;;5.40;;
64459;SDS011;50828;53.756;21.140;2022-09-09T12:28:54;9.50;;;5.90;;
64459;SDS011;50828;53.756;21.140;2022-09-09T12:34:11;9.10;;;5.30;;
64459;SDS011;50828;53.756;21.140;2022-09-09T12:39:22;8.40;;;5.70;;
64459;SDS011;50828;53.756;21.140;2022-09-09T12:44:37;8.10;;;5.50;;
64459;SDS011;50828;53.756;21.140;2022-09-09T12:49:55;8.40;;;5.60;;
64459;SDS011;50828;53.756;21.140;2022-09-09T12:55:04;7.10;;;5.00;;
64459;SDS011;50828;53.756;21.140;2022-09-09T13:00:16;6.90;;;4.90;;
64459;SDS011;50828;53.756;21.140;2022-09-09T13:05:27;5.70;;;4.30;;
64459;SDS011;50828;53.756;21.140;2022-09-09T13:10:43;7.90;;;4.50;;
64459;SDS011;50828;53.756;21.140;2022-09-09T13:16:07;6.30;;;4.40;;
64459;SDS011;50828;53.756;21.140;2022-09-09T13:21:34;7.70;;;4.50;;
64459;SDS011;50828;53.756;21.140;2022-09-09T13:26:43;4.50;;;3.80;;
64459;SDS011;50828;53.756;21.140;2022-09-09T13:32:05;5.50;;;4.10;;
64459;SDS011;50828;53.756;21.140;2022-09-09T13:37:22;5.60;;;3.80;;
64459;SDS011;50828;53.756;21.140;2022-09-09T13:42:34;6.60;;;3.70;;
64459;SDS011;50828;53.756;21.140;2022-09-09T13:47:46;5.40;;;3.90;;
64459;SDS011;50828;53.756;21.140;2022-09-09T13:52:56;5.60;;;3.40;;
64459;SDS011;50828;53.756;21.140;2022-09-09T13:58:04;5.10;;;3.70;;
64459;SDS011;50828;53.756;21.140;2022-09-09T14:03:21;4.60;;;3.10;;
64459;SDS011;50828;53.756;21.140;2022-09-09T14:08:29;6.00;;;3.70;;
64459;SDS011;50828;53.756;21.140;2022-09-09T14:13:41;5.00;;;3.60;;
64459;SDS011;50828;53.756;21.140;2022-09-09T14:18:49;5.20;;;3.80;;
64459;SDS011;50828;53.756;21.140;2022-09-09T14:23:57;6.10;;;4.20;;
64459;SDS011;50828;53.756;21.140;2022-09-09T14:29:04;6.20;;;4.40;;
64459;SDS011;50828;53.756;21.140;2022-09-09T14:34:12;5.60;;;3.90;;
64459;SDS011;50828;53.756;21.140;2022-09-09T14:39:21;5.90;;;4.50;;
64459;SDS011;50828;53.756;21.140;2022-09-09T14:44:29;5.90;;;4.60;;
64459;SDS011;50828;53.756;21.140;2022-09-09T14:49:37;5.40;;;4.00;;
64459;SDS011;50828;53.756;21.140;2022-09-09T14:54:52;5.50;;;4.10;;
64459;SDS011;50828;53.756;21.140;2022-09-09T15:00:00;5.30;;;3.80;;
64459;SDS011;50828;53.756;21.140;2022-09-09T15:05:09;6.70;;;4.10;;
64459;SDS011;50828;53.756;21.140;2022-09-09T15:10:17;5.90;;;4.20;;
64459;SDS011;50828;53.756;21.140;2022-09-09T15:15:25;7.30;;;4.20;;
64459;SDS011;50828;53.756;21.140;2022-09-09T15:20:32;6.50;;;4.20;;
64459;SDS011;50828;53.756;21.140;2022-09-09T15:25:51;6.80;;;4.10;;
64459;SDS011;50828;53.756;21.140;2022-09-09T15:30:59;6.70;;;3.80;;
64459;SDS011;50828;53.756;21.140;2022-09-09T15:36:16;6.80;;;4.20;;
64459;SDS011;50828;53.756;21.140;2022-09-09T15:41:25;6.30;;;4.50;;
64459;SDS011;50828;53.756;21.140;2022-09-09T15:46:36;6.40;;;4.20;;
64459;SDS011;50828;53.756;21.140;2022-09-09T15:51:46;6.00;;;4.20;;
64459;SDS011;50828;53.756;21.140;2022-09-09T15:56:56;7.60;;;4.30;;
64459;SDS011;50828;53.756;21.140;2022-09-09T16:02:06;6.80;;;4.60;;
64459;SDS011;50828;53.756;21.140;2022-09-09T16:07:14;6.90;;;4.10;;
64459;SDS011;50828;53.756;21.140;2022-09-09T16:12:22;6.20;;;4.60;;
64459;SDS011;50828;53.756;21.140;2022-09-09T16:17:31;8.50;;;4.70;;
64459;SDS011;50828;53.756;21.140;2022-09-09T16:22:42;6.30;;;4.70;;
64459;SDS011;50828;53.756;21.140;2022-09-09T16:27:50;6.40;;;5.00;;
64459;SDS011;50828;53.756;21.140;2022-09-09T16:32:59;8.50;;;5.10;;
64459;SDS011;50828;53.756;21.140;2022-09-09T16:38:08;6.50;;;5.00;;
64459;SDS011;50828;53.756;21.140;2022-09-09T16:43:16;7.60;;;5.40;;
64459;SDS011;50828;53.756;21.140;2022-09-09T16:48:25;8.10;;;5.70;;
64459;SDS011;50828;53.756;21.140;2022-09-09T16:53:36;7.50;;;5.30;;
64459;SDS011;50828;53.756;21.140;2022-09-09T16:58:49;7.00;;;5.30;;
64459;SDS011;50828;53.756;21.140;2022-09-09T17:04:00;8.70;;;5.70;;
64459;SDS011;50828;53.756;21.140;2022-09-09T17:09:10;7.80;;;6.10;;
64459;SDS011;50828;53.756;21.140;2022-09-09T17:14:20;10.70;;;6.10;;
64459;SDS011;50828;53.756;21.140;2022-09-09T17:19:29;7.70;;;6.00;;
64459;SDS011;50828;53.756;21.140;2022-09-09T17:24:37;7.30;;;5.40;;
64459;SDS011;50828;53.756;21.140;2022-09-09T17:29:45;8.90;;;5.60;;
64459;SDS011;50828;53.756;21.140;2022-09-09T17:34:53;7.90;;;5.80;;
64459;SDS011;50828;53.756;21.140;2022-09-09T17:40:02;8.70;;;5.60;;
64459;SDS011;50828;53.756;21.140;2022-09-09T17:45:11;8.10;;;5.30;;
64459;SDS011;50828;53.756;21.140;2022-09-09T17:50:20;9.20;;;5.90;;
64459;SDS011;50828;53.756;21.140;2022-09-09T17:55:28;10.20;;;6.20;;
64459;SDS011;50828;53.756;21.140;2022-09-09T18:00:38;7.30;;;5.50;;
64459;SDS011;50828;53.756;21.140;2022-09-09T18:05:46;9.20;;;6.10;;
64459;SDS011;50828;53.756;21.140;2022-09-09T18:10:54;7.10;;;5.10;;
64459;SDS011;50828;53.756;21.140;2022-09-09T18:16:05;8.50;;;5.70;;
64459;SDS011;50828;53.756;21.140;2022-09-09T18:21:15;11.30;;;6.10;;
64459;SDS011;50828;53.756;21.140;2022-09-09T18:26:24;9.50;;;6.10;;
64459;SDS011;50828;53.756;21.140;2022-09-09T18:31:33;8.70;;;5.40;;
64459;SDS011;50828;53.756;21.140;2022-09-09T18:36:42;7.60;;;5.20;;
64459;SDS011;50828;53.756;21.140;2022-09-09T18:41:53;7.50;;;5.20;;
64459;SDS011;50828;53.756;21.140;2022-09-09T18:47:04;8.50;;;5.10;;
64459;SDS011;50828;53.756;21.140;2022-09-09T18:52:12;7.10;;;5.10;;
64459;SDS011;50828;53.756;21.140;2022-09-09T18:57:21;7.30;;;5.50;;
64459;SDS011;50828;53.756;21.140;2022-09-09T19:02:29;8.70;;;5.80;;
64459;SDS011;50828;53.756;21.140;2022-09-09T19:07:38;7.20;;;5.60;;
64459;SDS011;50828;53.756;21.140;2022-09-09T19:12:45;8.10;;;5.30;;
64459;SDS011;50828;53.756;21.140;2022-09-09T19:17:55;8.60;;;6.00;;
64459;SDS011;50828;53.756;21.140;2022-09-09T19:23:09;8.00;;;5.50;;
64459;SDS011;50828;53.756;21.140;2022-09-09T19:28:17;7.60;;;5.70;;
64459;SDS011;50828;53.756;21.140;2022-09-09T19:33:25;7.60;;;5.90;;
64459;SDS011;50828;53.756;21.140;2022-09-09T19:38:35;8.30;;;6.10;;
64459;SDS011;50828;53.756;21.140;2022-09-09T19:43:44;10.10;;;6.00;;
64459;SDS011;50828;53.756;21.140;2022-09-09T19:48:54;9.20;;;5.50;;
64459;SDS011;50828;53.756;21.140;2022-09-09T19:54:05;8.50;;;5.80;;
64459;SDS011;50828;53.756;21.140;2022-09-09T19:59:15;7.00;;;5.50;;
64459;SDS011;50828;53.756;21.140;2022-09-09T20:04:23;9.20;;;6.00;;
64459;SDS011;50828;53.756;21.140;2022-09-09T20:09:31;7.70;;;5.40;;
64459;SDS011;50828;53.756;21.140;2022-09-09T20:14:39;7.90;;;5.30;;
64459;SDS011;50828;53.756;21.140;2022-09-09T20:19:47;8.40;;;5.30;;
64459;SDS011;50828;53.756;21.140;2022-09-09T20:24:55;8.70;;;5.70;;
64459;SDS011;50828;53.756;21.140;2022-09-09T20:30:04;8.30;;;5.60;;
64459;SDS011;50828;53.756;21.140;2022-09-09T20:35:13;10.70;;;6.20;;
64459;SDS011;50828;53.756;21.140;2022-09-09T20:40:21;9.80;;;6.30;;
64459;SDS011;50828;53.756;21.140;2022-09-09T20:45:36;7.60;;;5.60;;
64459;SDS011;50828;53.756;21.140;2022-09-09T20:50:47;9.00;;;6.30;;
64459;SDS011;50828;53.756;21.140;2022-09-09T20:55:59;8.10;;;6.00;;
64459;SDS011;50828;53.756;21.140;2022-09-09T21:01:10;7.70;;;5.20;;
64459;SDS011;50828;53.756;21.140;2022-09-09T21:06:23;7.80;;;5.80;;
64459;SDS011;50828;53.756;21.140;2022-09-09T21:11:32;8.40;;;5.50;;
64459;SDS011;50828;53.756;21.140;2022-09-09T21:16:40;9.40;;;6.00;;
64459;SDS011;50828;53.756;21.140;2022-09-09T21:21:48;8.20;;;5.70;;
64459;SDS011;50828;53.756;21.140;2022-09-09T21:26:57;8.50;;;5.70;;
64459;SDS011;50828;53.756;21.140;2022-09-09T21:32:05;9.40;;;5.80;;
64459;SDS011;50828;53.756;21.140;2022-09-09T21:37:14;9.20;;;6.10;;
64459;SDS011;50828;53.756;21.140;2022-09-09T21:42:23;10.50;;;6.20;;
64459;SDS011;50828;53.756;21.140;2022-09-09T21:47:31;7.80;;;5.80;;
64459;SDS011;50828;53.756;21.140;2022-09-09T21:52:42;11.90;;;7.30;;
64459;SDS011;50828;53.756;21.140;2022-09-09T21:57:50;10.60;;;6.80;;
64459;SDS011;50828;53.756;21.140;2022-09-09T22:02:59;9.60;;;6.90;;
64459;SDS011;50828;53.756;21.140;2022-09-09T22:08:08;14.00;;;7.40;;
64459;SDS011;50828;53.756;21.140;2022-09-09T22:13:18;13.80;;;7.40;;
64459;SDS011;50828;53.756;21.140;2022-09-09T22:18:27;11.00;;;7.40;;
64459;SDS011;50828;53.756;21.140;2022-09-09T22:23:36;17.30;;;8.40;;
64459;SDS011;50828;53.756;21.140;2022-09-09T22:28:44;14.00;;;8.40;;
64459;SDS011;50828;53.756;21.140;2022-09-09T22:33:52;16.00;;;9.00;;
64459;SDS011;50828;53.756;21.140;2022-09-09T22:38:59;12.40;;;8.60;;
64459;SDS011;50828;53.756;21.140;2022-09-09T22:44:08;13.10;;;8.70;;
64459;SDS011;50828;53.756;21.140;2022-09-09T22:49:16;14.50;;;9.90;;
64459;SDS011;50828;53.756;21.140;2022-09-09T22:54:24;14.20;;;9.10;;
64459;SDS011;50828;53.756;21.140;2022-09-09T22:59:32;14.60;;;9.60;;
64459;SDS011;50828;53.756;21.140;2022-09-09T23:04:40;13.80;;;9.40;;
64459;SDS011;50828;53.756;21.140;2022-09-09T23:09:48;19.00;;;10.10;;
64459;SDS011;50828;53.756;21.140;2022-09-09T23:14:56;18.20;;;10.80;;
64459;SDS011;50828;53.756;21.140;2022-09-09T23:20:07;20.30;;;10.90;;
64459;SDS011;50828;53.756;21.140;2022-09-09T23:25:16;17.10;;;10.10;;
64459;SDS011;50828;53.756;21.140;2022-09-09T23:30:24;19.40;;;11.10;;
64459;SDS011;50828;53.756;21.140;2022-09-09T23:35:33;22.40;;;11.50;;
64459;SDS011;50828;53.756;21.140;2022-09-09T23:40:41;18.10;;;11.20;;
64459;SDS011;50828;53.756;21.140;2022-09-09T23:45:49;17.70;;;10.90;;
64459;SDS011;50828;53.756;21.140;2022-09-09T23:50:58;19.20;;;11.00;;
64459;SDS011;50828;53.756;21.140;2022-09-09T23:56:06;21.50;;;11.50;;
